Time;durP1;ratioP1;P1;durP2;ratioP2;P2;SDS_P1;SDS_P2;PMS_P1;PMS_P2;Temp;Humidity;BMP_temperature;BMP_pressure;BME280_temperature;BME280_humidity;BME280_pressure;Samples;Min_cycle;Max_cycle;Signal;HPM_P1;HPM_P2
2023/03/21 00:02:26;;;;;;;26.65;13.40;;;;;;;7.88;100.00;101358.84;6274633;28;20332;-79
2023/03/21 00:05:28;;;;;;;26.77;11.85;;;;;;;7.86;100.00;101353.69;6274996;28;20053;-79
2023/03/21 00:08:29;;;;;;;33.25;12.93;;;;;;;7.86;100.00;101352.81;6274501;28;20055;-79
2023/03/21 00:11:32;;;;;;;24.30;12.82;;;;;;;7.85;100.00;101356.31;6274970;28;20107;-79
2023/03/21 00:14:33;;;;;;;27.05;12.65;;;;;;;7.84;100.00;101342.38;6274716;28;20044;-79
2023/03/21 00:17:38;;;;;;;27.83;14.65;;;;;;;7.80;100.00;101348.63;6274102;28;20055;-79
2023/03/21 00:20:39;;;;;;;30.60;12.80;;;;;;;7.73;100.00;101343.66;6274544;28;20052;-78
2023/03/21 00:23:41;;;;;;;33.22;14.15;;;;;;;7.79;100.00;101344.31;6274270;28;20048;-78
2023/03/21 00:26:44;;;;;;;28.65;14.73;;;;;;;7.81;100.00;101336.38;6274529;28;20053;-79
2023/03/21 00:29:48;;;;;;;26.50;12.43;;;;;;;7.77;100.00;101340.03;6253017;28;20050;-79
2023/03/21 00:32:49;;;;;;;36.08;13.45;;;;;;;7.79;100.00;101333.84;6255191;28;20339;-78
2023/03/21 00:35:52;;;;;;;34.60;14.80;;;;;;;7.81;100.00;101336.38;6254003;28;20492;-79
2023/03/21 00:38:53;;;;;;;32.38;13.75;;;;;;;7.84;100.00;101328.44;6265494;28;20058;-79
2023/03/21 00:41:56;;;;;;;31.98;13.90;;;;;;;7.84;100.00;101331.91;6278686;28;20072;-78
2023/03/21 00:44:57;;;;;;;32.58;13.98;;;;;;;7.83;100.00;101319.75;6278903;28;20052;-78
2023/03/21 00:47:59;;;;;;;34.60;14.02;;;;;;;7.85;100.00;101324.91;6278763;28;20048;-79
2023/03/21 00:51:00;;;;;;;27.45;13.38;;;;;;;7.93;100.00;101322.06;6278527;28;20422;-79
2023/03/21 00:54:04;;;;;;;27.33;14.23;;;;;;;7.91;100.00;101324.75;6278613;28;20060;-78
2023/03/21 00:57:06;;;;;;;29.42;13.05;;;;;;;7.94;100.00;101315.91;6278331;28;20162;-80
2023/03/21 01:00:12;;;;;;;43.40;15.05;;;;;;;7.97;100.00;101311.44;6256333;28;20041;-79
2023/03/21 01:03:15;;;;;;;25.42;13.45;;;;;;;7.89;100.00;101305.59;6253400;28;20045;-79
2023/03/21 01:06:19;;;;;;;32.42;14.02;;;;;;;7.91;100.00;101303.81;6253569;28;20060;-79
2023/03/21 01:09:22;;;;;;;26.70;13.77;;;;;;;7.97;100.00;101303.59;6253381;28;20052;-79
2023/03/21 01:12:26;;;;;;;33.50;13.13;;;;;;;7.91;100.00;101298.56;6253480;28;20052;-78
2023/03/21 01:15:27;;;;;;;28.98;12.82;;;;;;;7.94;100.00;101301.06;6253277;28;20091;-80
2023/03/21 01:18:30;;;;;;;37.00;13.27;;;;;;;7.89;100.00;101290.75;6253212;28;20371;-79
2023/03/21 01:21:32;;;;;;;23.92;12.68;;;;;;;7.98;100.00;101296.59;6253004;28;20050;-79
2023/03/21 01:24:34;;;;;;;21.33;10.27;;;;;;;7.97;100.00;101285.28;6253104;28;20060;-78
2023/03/21 01:27:36;;;;;;;28.52;11.25;;;;;;;7.92;100.00;101291.56;6253025;28;20046;-79
2023/03/21 01:30:38;;;;;;;25.50;11.60;;;;;;;7.96;100.00;101287.94;6254024;28;20053;-79
2023/03/21 01:33:39;;;;;;;25.25;10.57;;;;;;;7.99;100.00;101293.91;6252925;28;20048;-79
2023/03/21 01:36:41;;;;;;;22.75;11.60;;;;;;;7.96;100.00;101283.56;6252660;28;20056;-79
2023/03/21 01:39:42;;;;;;;25.83;12.27;;;;;;;7.95;100.00;101287.09;6252696;28;20358;-79
2023/03/21 01:42:45;;;;;;;23.02;11.18;;;;;;;7.94;100.00;101284.50;6251605;28;20053;-79
2023/03/21 01:46:07;;;;;;;31.65;11.55;;;;;;;7.98;100.00;101284.34;6252749;28;20136;-79
2023/03/21 01:49:14;;;;;;;26.45;11.35;;;;;;;7.96;100.00;101285.34;6252452;28;20058;-79
2023/03/21 01:52:19;;;;;;;35.72;12.60;;;;;;;7.95;100.00;101283.59;6253637;28;20046;-79
2023/03/21 01:55:21;;;;;;;22.48;9.45;;;;;;;7.98;100.00;101283.50;6252377;28;20057;-79
2023/03/21 01:58:24;;;;;;;25.45;11.05;;;;;;;7.99;100.00;101277.34;6252520;28;20050;-79
2023/03/21 02:01:25;;;;;;;29.13;11.25;;;;;;;7.96;100.00;101283.56;6251981;28;20053;-80
2023/03/21 02:04:29;;;;;;;26.05;11.45;;;;;;;7.98;100.00;101280.88;6252402;28;20468;-79
2023/03/21 02:07:34;;;;;;;20.98;10.65;;;;;;;8.00;100.00;101279.09;6251795;28;20579;-80
2023/03/21 02:10:35;;;;;;;23.35;10.88;;;;;;;8.09;100.00;101270.94;6252098;28;20152;-79
2023/03/21 02:13:39;;;;;;;25.60;11.43;;;;;;;8.06;100.00;101269.25;6251893;28;20045;-78
2023/03/21 02:16:50;;;;;;;26.48;11.77;;;;;;;8.06;100.00;101264.00;6251961;28;20083;-79
2023/03/21 02:20:21;;;;;;;22.85;10.50;;;;;;;8.07;100.00;101260.47;6251874;28;20064;-79
2023/03/21 02:23:59;;;;;;;22.02;10.32;;;;;;;8.08;100.00;101256.09;6274970;28;20513;-79
2023/03/21 02:27:10;;;;;;;21.45;10.38;;;;;;;8.07;100.00;101251.78;6245514;28;20056;-79
2023/03/21 02:30:37;;;;;;;22.88;9.98;;;;;;;8.09;100.00;101248.22;6276210;28;20480;-79
2023/03/21 02:34:14;;;;;;;22.85;10.65;;;;;;;8.10;100.00;101247.31;6276369;28;20048;-79
2023/03/21 02:37:23;;;;;;;24.17;10.00;;;;;;;8.16;100.00;101242.75;6275986;28;20049;-79
2023/03/21 02:40:30;;;;;;;23.25;11.07;;;;;;;8.14;100.00;101238.44;6276209;28;20052;-79
2023/03/21 02:43:39;;;;;;;23.92;10.40;;;;;;;8.19;100.00;101238.28;6275863;28;20075;-79
2023/03/21 02:46:46;;;;;;;25.05;10.43;;;;;;;8.17;100.00;101241.84;6275912;28;20049;-79
2023/03/21 02:49:53;;;;;;;35.00;11.30;;;;;;;8.13;100.00;101243.72;6276130;28;20056;-80
2023/03/21 02:52:57;;;;;;;24.00;10.80;;;;;;;8.15;100.00;101239.28;6258828;28;20183;-80
2023/03/21 02:56:00;;;;;;;21.30;9.88;;;;;;;8.14;100.00;101237.59;6251131;28;20061;-80
2023/03/21 02:59:03;;;;;;;20.50;10.10;;;;;;;8.17;100.00;101239.22;6251116;28;20092;-80
2023/03/21 03:02:05;;;;;;;19.45;10.20;;;;;;;8.23;100.00;101242.50;6250659;28;20132;-79
2023/03/21 03:05:14;;;;;;;27.00;10.32;;;;;;;8.18;100.00;101238.34;6250718;28;20508;-79
2023/03/21 03:08:27;;;;;;;19.58;10.48;;;;;;;8.16;100.00;101237.50;6250680;28;20045;-79
2023/03/21 03:11:31;;;;;;;25.92;10.82;;;;;;;8.18;100.00;101238.34;6250349;28;20392;-79
2023/03/21 03:14:44;;;;;;;19.42;10.10;;;;;;;8.18;100.00;101231.34;6250741;28;20045;-78
2023/03/21 03:17:51;;;;;;;20.40;9.95;;;;;;;8.18;100.00;101233.09;6250681;28;20129;-79
2023/03/21 03:21:00;;;;;;;24.35;11.70;;;;;;;8.23;100.00;101234.63;6253820;28;20186;-80
2023/03/21 03:24:09;;;;;;;28.55;11.07;;;;;;;8.22;100.00;101232.94;6258215;28;20048;-80
2023/03/21 03:27:16;;;;;;;25.20;11.45;;;;;;;8.16;100.00;101230.50;6259148;28;20342;-79
2023/03/21 03:30:18;;;;;;;23.92;11.32;;;;;;;8.19;100.00;101226.94;6264452;28;20056;-79
2023/03/21 03:33:22;;;;;;;24.50;12.85;;;;;;;8.19;100.00;101216.47;6252151;28;20041;-79
2023/03/21 03:36:28;;;;;;;18.30;9.88;;;;;;;8.16;100.00;101220.03;6250210;28;20187;-80
2023/03/21 03:39:35;;;;;;;24.25;11.85;;;;;;;8.18;100.00;101222.63;6250477;28;20050;-80
2023/03/21 03:42:41;;;;;;;26.15;11.75;;;;;;;8.14;100.00;101225.34;6250393;28;20192;-80
2023/03/21 03:45:48;;;;;;;22.67;11.65;;;;;;;8.17;100.00;101223.50;6250188;28;20491;-79
2023/03/21 03:48:54;;;;;;;27.60;11.35;;;;;;;8.11;100.00;101220.22;6260771;28;20057;-80
2023/03/21 03:52:01;;;;;;;22.42;11.50;;;;;;;8.20;100.00;101223.41;6273570;28;20052;-79
2023/03/21 03:55:06;;;;;;;26.48;12.23;;;;;;;8.13;100.00;101213.16;6275161;28;20049;-79
2023/03/21 03:58:07;;;;;;;21.67;10.65;;;;;;;8.12;100.00;101216.66;6274905;28;20048;-79
2023/03/21 04:01:09;;;;;;;30.33;12.23;;;;;;;8.09;100.00;101218.56;6273402;28;20049;-79
2023/03/21 04:04:12;;;;;;;23.65;12.15;;;;;;;8.13;100.00;101214.94;6261992;28;20461;-79
2023/03/21 04:07:14;;;;;;;24.02;12.07;;;;;;;8.17;100.00;101213.03;6276918;28;20056;-81
2023/03/21 04:10:17;;;;;;;25.02;11.68;;;;;;;8.17;100.00;101219.13;6279552;28;20053;-79
2023/03/21 04:13:18;;;;;;;33.85;14.07;;;;;;;8.19;100.00;101212.09;6279467;28;20054;-79
2023/03/21 04:16:20;;;;;;;28.02;11.88;;;;;;;8.16;100.00;101217.44;6279387;28;20417;-79
2023/03/21 04:19:21;;;;;;;30.98;13.77;;;;;;;8.15;100.00;101210.50;6279482;28;20049;-79
2023/03/21 04:22:23;;;;;;;28.67;12.93;;;;;;;8.15;100.00;101220.97;6251981;28;20060;-79
2023/03/21 04:25:27;;;;;;;32.97;14.63;;;;;;;8.15;100.00;101213.09;6234238;28;20041;-79
2023/03/21 04:28:28;;;;;;;37.03;12.55;;;;;;;8.13;100.00;101207.09;6234354;28;20099;-79
2023/03/21 04:31:32;;;;;;;34.55;14.05;;;;;;;8.14;100.00;101214.03;6234584;28;20042;-79
2023/03/21 04:34:39;;;;;;;27.50;12.70;;;;;;;8.13;100.00;101202.69;6235576;28;20576;-79
2023/03/21 04:37:40;;;;;;;35.45;13.88;;;;;;;8.16;100.00;101208.72;6233857;28;20056;-79
2023/03/21 04:40:43;;;;;;;33.17;12.88;;;;;;;8.14;100.00;101195.69;6235126;28;20462;-81
2023/03/21 04:43:44;;;;;;;33.53;12.70;;;;;;;8.16;100.00;101206.09;6233919;28;20038;-79
2023/03/21 04:46:46;;;;;;;35.88;14.85;;;;;;;8.14;100.00;101209.63;6233663;28;20504;-79
2023/03/21 04:49:47;;;;;;;32.83;15.07;;;;;;;8.12;100.00;101194.88;6233616;28;20056;-79
2023/03/21 04:52:49;;;;;;;29.63;12.93;;;;;;;8.12;100.00;101200.97;6236074;28;20053;-79
2023/03/21 04:55:52;;;;;;;27.90;11.73;;;;;;;8.14;100.00;101198.31;6240503;28;20037;-78
2023/03/21 04:58:53;;;;;;;25.55;12.05;;;;;;;8.17;100.00;101198.19;6251062;28;20042;-72
2023/03/21 05:01:55;;;;;;;28.52;12.90;;;;;;;8.18;100.00;101201.69;6243828;28;20049;-72
2023/03/21 05:04:57;;;;;;;29.17;13.32;;;;;;;8.20;100.00;101192.00;6244178;28;20082;-72
2023/03/21 05:07:59;;;;;;;35.45;13.90;;;;;;;8.19;100.00;101193.75;6255309;28;20051;-72
2023/03/21 05:11:02;;;;;;;25.95;11.40;;;;;;;8.23;100.00;101186.66;6255566;28;20045;-72
2023/03/21 05:14:03;;;;;;;31.10;12.48;;;;;;;8.23;100.00;101189.28;6256769;28;20045;-72
2023/03/21 05:17:05;;;;;;;37.03;13.18;;;;;;;8.21;100.00;101191.06;6255467;28;20048;-72
2023/03/21 05:20:08;;;;;;;26.08;11.27;;;;;;;8.22;100.00;101184.94;6255838;28;20055;-72
2023/03/21 05:23:10;;;;;;;24.92;11.57;;;;;;;8.24;100.00;101185.75;6258928;28;20049;-71
2023/03/21 05:26:13;;;;;;;32.80;14.43;;;;;;;8.19;100.00;101185.91;6253045;28;20264;-72
2023/03/21 05:29:14;;;;;;;31.23;13.75;;;;;;;8.22;100.00;101185.81;6253214;28;20053;-72
2023/03/21 05:32:15;;;;;;;32.38;13.70;;;;;;;8.21;100.00;101180.59;6252783;28;20132;-71
2023/03/21 05:35:17;;;;;;;36.83;15.02;;;;;;;8.23;100.00;101184.03;6253095;28;20049;-71
2023/03/21 05:38:18;;;;;;;41.58;13.80;;;;;;;8.26;100.00;101187.38;6252831;28;20349;-72
2023/03/21 05:41:21;;;;;;;32.22;14.35;;;;;;;8.29;100.00;101184.66;6252999;28;20426;-72
2023/03/21 05:44:22;;;;;;;36.97;13.82;;;;;;;8.30;100.00;101180.25;6252815;28;20103;-72
2023/03/21 05:47:23;;;;;;;37.42;14.40;;;;;;;8.30;100.00;101182.88;6252571;28;20061;-71
2023/03/21 05:50:25;;;;;;;32.72;14.07;;;;;;;8.32;100.00;101183.69;6252554;28;20072;-72
2023/03/21 05:53:26;;;;;;;35.63;14.27;;;;;;;8.32;100.00;101176.69;6271820;28;20373;-72
2023/03/21 05:56:29;;;;;;;32.47;16.17;;;;;;;8.35;100.00;101178.31;6276965;28;20048;-72
2023/03/21 05:59:30;;;;;;;34.20;14.82;;;;;;;8.35;100.00;101184.41;6276995;28;20041;-71
2023/03/21 06:02:32;;;;;;;37.70;14.48;;;;;;;8.37;100.00;101187.03;6265671;28;20052;-71
2023/03/21 06:05:33;;;;;;;38.45;14.07;;;;;;;8.41;100.00;101179.94;6259649;28;20374;-71
2023/03/21 06:08:34;;;;;;;41.00;14.45;;;;;;;8.42;100.00;101189.47;6271110;28;20057;-72
2023/03/21 06:11:38;;;;;;;41.28;16.23;;;;;;;8.42;100.00;101194.72;6276728;28;20186;-72
2023/03/21 06:14:40;;;;;;;36.45;14.35;;;;;;;8.41;100.00;101183.38;6262383;28;20045;-72
2023/03/21 06:17:41;;;;;;;32.40;15.27;;;;;;;8.39;100.00;101191.28;6264231;28;20544;-71
2023/03/21 06:20:42;;;;;;;39.85;15.30;;;;;;;8.40;100.00;101181.66;6266306;28;20057;-72
2023/03/21 06:23:44;;;;;;;34.00;15.18;;;;;;;8.42;100.00;101192.09;6263581;28;20052;-71
2023/03/21 06:26:47;;;;;;;33.22;16.20;;;;;;;8.45;100.00;101192.84;6252989;28;20339;-72
2023/03/21 06:29:48;;;;;;;45.95;15.32;;;;;;;8.46;100.00;101189.31;6251272;28;20077;-71
2023/03/21 06:32:50;;;;;;;36.20;15.18;;;;;;;8.48;100.00;101190.09;6251684;28;20045;-71
2023/03/21 06:35:52;;;;;;;33.17;15.70;;;;;;;8.49;100.00;101186.56;6255864;28;20041;-71
2023/03/21 06:38:54;;;;;;;35.53;14.48;;;;;;;8.52;100.00;101190.84;6254467;28;20049;-71
2023/03/21 06:41:57;;;;;;;29.00;13.70;;;;;;;8.49;100.00;101189.16;6251579;28;20135;-72
2023/03/21 06:44:58;;;;;;;34.40;15.25;;;;;;;8.51;100.00;101190.00;6251265;28;20056;-74
2023/03/21 06:47:59;;;;;;;30.92;13.68;;;;;;;8.57;100.00;101196.75;6251360;28;20457;-72
2023/03/21 06:51:01;;;;;;;32.35;12.98;;;;;;;8.64;100.00;101195.63;6251122;28;20056;-71
2023/03/21 06:54:02;;;;;;;29.17;13.20;;;;;;;8.62;100.00;101198.28;6251482;28;20046;-72
2023/03/21 06:57:05;;;;;;;33.97;13.25;;;;;;;8.61;100.00;101199.19;6250942;28;20045;-71
2023/03/21 07:00:08;;;;;;;30.17;13.52;;;;;;;8.64;100.00;101206.09;6250864;28;20060;-72
2023/03/21 07:03:10;;;;;;;31.63;13.52;;;;;;;8.63;100.00;101202.63;6251232;28;20053;-72
2023/03/21 07:06:12;;;;;;;30.02;13.25;;;;;;;8.64;100.00;101208.72;6250689;28;20042;-72
2023/03/21 07:09:16;;;;;;;30.33;14.18;;;;;;;8.60;100.00;101204.50;6250612;28;20057;-72
2023/03/21 07:12:19;;;;;;;32.67;12.90;;;;;;;8.65;100.00;101199.94;6250845;28;20045;-72
2023/03/21 07:15:20;;;;;;;31.15;13.45;;;;;;;8.71;100.00;101191.00;6250867;28;20045;-72
2023/03/21 07:18:22;;;;;;;27.85;13.00;;;;;;;8.67;100.00;101195.47;6250492;28;20057;-72
2023/03/21 07:21:23;;;;;;;32.40;12.48;;;;;;;8.68;100.00;101191.97;6252004;28;20072;-72
2023/03/21 07:24:25;;;;;;;31.92;12.35;;;;;;;8.74;100.00;101190.88;6250365;28;20052;-72
2023/03/21 07:27:27;;;;;;;28.40;12.05;;;;;;;8.78;100.00;101193.31;6250389;28;20199;-72
2023/03/21 07:30:29;;;;;;;25.48;12.77;;;;;;;8.80;100.00;101182.75;6250422;28;20053;-72
2023/03/21 07:33:31;;;;;;;25.45;12.88;;;;;;;8.86;100.00;101187.78;6250780;28;20053;-72
2023/03/21 07:36:32;;;;;;;30.27;12.35;;;;;;;8.88;100.00;101183.31;6250368;28;20049;-72
2023/03/21 07:39:34;;;;;;;28.88;12.60;;;;;;;8.95;100.00;101187.44;6252413;28;20449;-72
2023/03/21 07:42:37;;;;;;;25.30;11.30;;;;;;;9.01;100.00;101175.84;6257022;28;20045;-72
2023/03/21 07:45:39;;;;;;;26.88;12.30;;;;;;;8.99;100.00;101178.50;6259356;28;20050;-72
2023/03/21 07:48:40;;;;;;;27.98;11.82;;;;;;;9.01;100.00;101173.22;6265885;28;20052;-72
2023/03/21 07:51:42;;;;;;;20.48;11.07;;;;;;;9.13;100.00;101184.06;6269466;28;20045;-72
2023/03/21 07:54:43;;;;;;;26.33;11.52;;;;;;;9.12;100.00;101184.13;6267639;28;20045;-71
2023/03/21 07:57:50;;;;;;;30.63;11.85;;;;;;;9.19;100.00;101185.59;6274760;28;20060;-71
2023/03/21 08:00:52;;;;;;;31.00;13.73;;;;;;;9.27;100.00;101182.66;6274767;28;20079;-71
2023/03/21 08:03:53;;;;;;;26.67;10.85;;;;;;;9.26;100.00;101180.94;6275930;28;20045;-71
2023/03/21 08:06:56;;;;;;;27.52;11.07;;;;;;;9.27;100.00;101185.28;6278935;28;20065;-71
2023/03/21 08:09:57;;;;;;;24.30;11.20;;;;;;;9.26;100.00;101186.19;6276925;28;20049;-71
2023/03/21 08:13:00;;;;;;;22.80;10.65;;;;;;;9.26;100.00;101189.66;6274672;28;20056;-70
2023/03/21 08:16:01;;;;;;;22.92;9.68;;;;;;;9.32;100.00;101186.78;6278719;28;20048;-80
2023/03/21 08:19:03;;;;;;;26.05;10.60;;;;;;;9.32;100.00;101189.41;6273801;28;20048;-78
2023/03/21 08:22:05;;;;;;;25.88;11.13;;;;;;;9.36;100.00;101182.28;6276325;28;20048;-80
2023/03/21 08:25:08;;;;;;;20.63;9.75;;;;;;;9.46;100.00;101186.22;6257948;28;20045;-79
2023/03/21 08:28:11;;;;;;;28.45;11.65;;;;;;;9.51;100.00;101186.88;6257911;28;20127;-79
2023/03/21 08:31:13;;;;;;;37.03;10.25;;;;;;;9.59;100.00;101182.16;6258081;28;20057;-79
2023/03/21 08:34:16;;;;;;;24.08;10.63;;;;;;;9.63;100.00;101181.13;6258349;28;20054;-79
2023/03/21 08:37:18;;;;;;;27.65;10.35;;;;;;;9.59;100.00;101183.94;6257734;28;20056;-79
2023/03/21 08:40:19;;;;;;;25.33;10.63;;;;;;;9.61;100.00;101177.69;6257797;28;20369;-79
2023/03/21 08:43:22;;;;;;;25.98;9.90;;;;;;;9.63;100.00;101177.66;6266225;28;20124;-78
2023/03/21 08:46:24;;;;;;;25.58;9.70;;;;;;;9.54;100.00;101173.66;6266671;28;20072;-79
2023/03/21 08:49:25;;;;;;;27.20;10.18;;;;;;;9.54;100.00;101178.91;6266063;28;20041;-79
2023/03/21 08:52:27;;;;;;;21.20;8.73;;;;;;;9.74;100.00;101178.03;6263211;28;20135;-79
2023/03/21 08:55:29;;;;;;;17.92;7.97;;;;;;;9.73;100.00;101178.09;6254395;28;20060;-79
2023/03/21 08:58:31;;;;;;;26.55;9.02;;;;;;;9.81;100.00;101181.22;6261338;28;20059;-79
2023/03/21 09:01:33;;;;;;;19.83;9.40;;;;;;;9.78;100.00;101176.13;6270336;28;20053;-79
2023/03/21 09:04:34;;;;;;;19.08;8.40;;;;;;;9.83;100.00;101176.78;6278439;28;20049;-79
2023/03/21 09:07:36;;;;;;;22.98;9.15;;;;;;;9.80;100.00;101172.50;6277762;28;20049;-79
2023/03/21 09:10:37;;;;;;;22.77;8.75;;;;;;;9.77;100.00;101174.44;6259283;28;20703;-78
2023/03/21 09:13:40;;;;;;;27.38;10.02;;;;;;;9.81;100.00;101169.00;6262357;28;20057;-78
2023/03/21 09:16:41;;;;;;;19.50;8.70;;;;;;;9.85;100.00;101172.31;6259383;28;20467;-78
2023/03/21 09:19:43;;;;;;;20.35;9.18;;;;;;;9.88;100.00;101173.03;6262012;28;20060;-79
2023/03/21 09:22:46;;;;;;;24.42;9.18;;;;;;;9.91;100.00;101167.66;6262810;28;20042;-78
2023/03/21 09:25:47;;;;;;;25.40;10.25;;;;;;;9.88;100.00;101170.41;6263278;28;20042;-79
2023/03/21 09:28:50;;;;;;;23.77;9.43;;;;;;;9.82;100.00;101177.72;6265893;28;20064;-79
2023/03/21 09:31:53;;;;;;;27.23;10.88;;;;;;;9.78;100.00;101184.00;6277848;28;20163;-78
2023/03/21 09:34:56;;;;;;;25.70;9.32;;;;;;;9.88;100.00;101170.41;6277780;28;20044;-79
2023/03/21 09:37:58;;;;;;;25.42;9.40;;;;;;;9.89;100.00;101169.47;6267976;28;20044;-78
2023/03/21 09:41:09;;;;;;;21.77;10.20;;;;;;;9.97;100.00;101169.16;6277821;28;20053;-78
2023/03/21 09:44:27;;;;;;;22.20;9.65;;;;;;;9.93;100.00;101174.59;6277665;28;20140;-79
2023/03/21 09:47:33;;;;;;;25.10;10.20;;;;;;;9.85;100.00;101178.41;6261655;28;20049;-79
2023/03/21 09:50:37;;;;;;;23.58;8.80;;;;;;;9.77;100.00;101172.66;6252640;28;20053;-79
2023/03/21 09:53:42;;;;;;;23.33;9.60;;;;;;;9.82;100.00;101175.94;6253845;28;20049;-78
2023/03/21 09:56:46;;;;;;;23.95;9.77;;;;;;;9.71;100.00;101172.91;6276307;28;20052;-78
2023/03/21 09:59:52;;;;;;;19.65;9.05;;;;;;;9.75;100.00;101166.59;6277288;28;20140;-79
2023/03/21 10:02:58;;;;;;;18.98;8.60;;;;;;;9.80;100.00;101166.41;6272659;28;20052;-78
2023/03/21 10:06:02;;;;;;;20.27;9.82;;;;;;;9.80;100.00;101169.03;6261088;28;20373;-79
2023/03/21 10:09:08;;;;;;;24.85;9.75;;;;;;;9.81;100.00;101168.09;6264137;28;20061;-78
2023/03/21 10:12:15;;;;;;;17.05;7.88;;;;;;;9.81;100.00;101169.00;6268663;28;20441;-78
2023/03/21 10:15:20;;;;;;;18.58;8.80;;;;;;;9.88;100.00;101169.56;6254103;28;20065;-79
2023/03/21 10:18:26;;;;;;;20.63;10.18;;;;;;;9.92;100.00;101163.25;6251946;28;20349;-78
2023/03/21 10:21:28;;;;;;;19.10;8.88;;;;;;;9.84;100.00;101171.47;6261036;28;20369;-78
2023/03/21 10:24:32;;;;;;;18.70;9.13;;;;;;;9.87;100.00;101163.47;6252294;28;20052;-78
2023/03/21 10:27:36;;;;;;;20.35;8.80;;;;;;;9.89;100.00;101163.38;6251483;28;20060;-79
2023/03/21 10:30:42;;;;;;;23.25;10.35;;;;;;;9.93;100.00;101162.34;6265029;28;20183;-78
2023/03/21 10:33:47;;;;;;;26.15;9.43;;;;;;;9.93;100.00;101159.72;6267389;28;20057;-78
2023/03/21 10:36:48;;;;;;;16.67;8.30;;;;;;;9.90;100.00;101158.09;6269263;28;20353;-78
2023/03/21 10:39:51;;;;;;;15.38;7.45;;;;;;;9.84;100.00;101160.97;6261521;28;20485;-78
2023/03/21 10:42:55;;;;;;;17.90;7.85;;;;;;;9.80;100.00;101154.13;6267675;28;20437;-78
2023/03/21 10:45:57;;;;;;;19.75;8.75;;;;;;;9.78;100.00;101152.50;6257522;28;20045;-78
2023/03/21 10:48:59;;;;;;;17.70;8.13;;;;;;;9.73;100.00;101152.72;6259088;28;20052;-79
2023/03/21 10:52:04;;;;;;;23.10;7.60;;;;;;;9.70;100.00;101149.38;6254747;28;20075;-78
2023/03/21 10:55:20;;;;;;;19.13;7.30;;;;;;;9.79;100.00;101143.72;6275472;28;20045;-79
2023/03/21 10:58:26;;;;;;;15.98;8.00;;;;;;;9.77;100.00;101154.28;6275588;28;20441;-79
2023/03/21 11:01:36;;;;;;;20.40;9.25;;;;;;;9.77;100.00;101143.78;6275809;28;20053;-79
2023/03/21 11:04:38;;;;;;;18.98;7.50;;;;;;;9.76;100.00;101143.84;6275597;28;20341;-79
2023/03/21 11:07:40;;;;;;;16.55;8.20;;;;;;;9.71;100.00;101141.41;6275036;28;20045;-79
2023/03/21 11:10:51;;;;;;;15.63;7.53;;;;;;;9.76;100.00;101138.59;6270658;28;20060;-79
2023/03/21 11:13:59;;;;;;;15.52;6.80;;;;;;;9.75;100.00;101144.75;6266710;28;20500;-79
2023/03/21 11:17:01;;;;;;;18.33;6.38;;;;;;;9.76;100.00;101138.59;6275258;28;20056;-79
2023/03/21 11:20:09;;;;;;;16.00;7.78;;;;;;;9.78;100.00;101136.75;6275081;28;20349;-79
2023/03/21 11:23:12;;;;;;;17.15;7.85;;;;;;;9.85;100.00;101135.56;6263425;28;20053;-79
2023/03/21 11:26:22;;;;;;;17.92;7.63;;;;;;;9.93;100.00;101132.59;6250213;28;20383;-79
2023/03/21 11:29:29;;;;;;;15.23;7.53;;;;;;;9.96;100.00;101133.31;6258340;28;20444;-72
2023/03/21 11:32:34;;;;;;;13.57;7.35;;;;;;;9.99;100.00;101129.69;6250559;28;20057;-71
2023/03/21 11:35:38;;;;;;;17.05;7.47;;;;;;;10.00;100.00;101134.06;6250631;28;20474;-71
2023/03/21 11:38:40;;;;;;;17.08;7.63;;;;;;;10.04;100.00;101125.13;6255877;28;20049;-72
2023/03/21 11:41:43;;;;;;;15.38;8.25;;;;;;;10.04;100.00;101131.22;6260862;28;20064;-72
2023/03/21 11:44:44;;;;;;;16.23;8.68;;;;;;;10.05;100.00;101126.81;6257758;28;20155;-71
2023/03/21 11:47:48;;;;;;;18.30;8.02;;;;;;;10.03;100.00;101115.50;6258019;28;20052;-71
2023/03/21 11:50:55;;;;;;;21.73;8.00;;;;;;;10.09;100.00;101118.72;6254044;28;20441;-71
2023/03/21 11:54:06;;;;;;;16.02;7.78;;;;;;;10.09;100.00;101117.88;6260360;28;20210;-71
2023/03/21 11:57:15;;;;;;;19.55;7.90;;;;;;;10.15;100.00;101109.72;6260726;28;20174;-71
2023/03/21 12:00:24;;;;;;;24.50;7.30;;;;;;;10.23;100.00;101112.00;6250743;28;20056;-71
2023/03/21 12:04:03;;;;;;;16.00;8.00;;;;;;;10.24;100.00;101108.44;6260405;28;20053;-72
2023/03/21 12:07:21;;;;;;;19.27;7.43;;;;;;;10.20;100.00;101104.25;6257999;28;20118;-71
2023/03/21 12:10:32;;;;;;;11.18;6.63;;;;;;;10.18;100.00;101095.59;6264732;28;20049;-72
2023/03/21 12:13:47;;;;;;;17.02;6.55;;;;;;;10.12;100.00;101099.34;6271090;28;20045;-71
2023/03/21 12:16:59;;;;;;;13.27;7.18;;;;;;;10.12;100.00;101088.84;6259675;28;20045;-71
2023/03/21 12:20:21;;;;;;;15.57;7.38;;;;;;;10.17;100.00;101089.47;6265891;28;20056;-72
2023/03/21 12:23:42;;;;;;;16.00;6.68;;;;;;;10.27;100.00;101088.19;6263738;28;20045;-72
2023/03/21 12:26:49;;;;;;;14.48;6.35;;;;;;;10.31;100.00;101080.97;6269838;28;20049;-72
2023/03/21 12:30:11;;;;;;;12.30;6.75;;;;;;;10.32;100.00;101073.06;6279299;28;20060;-72
2023/03/21 12:33:25;;;;;;;19.75;7.40;;;;;;;10.40;100.00;101073.53;6279224;28;20738;-72
2023/03/21 12:36:43;;;;;;;13.90;7.10;;;;;;;10.38;100.00;101070.13;6279081;28;20065;-72
2023/03/21 12:39:47;;;;;;;15.32;6.57;;;;;;;10.43;100.00;101064.66;6278728;28;20447;-72
2023/03/21 12:43:02;;;;;;;10.85;5.97;;;;;;;10.48;100.00;101059.16;6264531;28;20057;-72
2023/03/21 12:46:09;;;;;;;18.25;7.13;;;;;;;10.47;100.00;101058.31;6279005;28;20050;-72
2023/03/21 12:49:18;;;;;;;12.30;6.20;;;;;;;10.46;100.00;101051.38;6278566;28;20053;-72
2023/03/21 12:52:26;;;;;;;13.65;6.65;;;;;;;10.46;100.00;101054.00;6267792;28;20438;-72
2023/03/21 12:55:31;;;;;;;15.40;7.17;;;;;;;10.47;100.00;101054.84;6253955;28;20049;-72
2023/03/21 12:58:42;;;;;;;11.52;5.75;;;;;;;10.46;100.00;101043.50;6261549;28;20068;-72
2023/03/21 13:01:46;;;;;;;12.10;6.35;;;;;;;10.45;100.00;101040.94;6267042;28;20179;-72
2023/03/21 13:04:56;;;;;;;16.65;6.63;;;;;;;10.52;100.00;101040.56;6269164;28;20049;-72
2023/03/21 13:08:04;;;;;;;12.80;6.13;;;;;;;10.40;100.00;101047.28;6260598;28;20045;-72
2023/03/21 13:11:06;;;;;;;12.52;6.20;;;;;;;10.37;100.00;101033.44;6274783;28;20056;-72
2023/03/21 13:14:15;;;;;;;13.90;5.95;;;;;;;10.38;100.00;101028.09;6266068;28;20049;-72
2023/03/21 13:17:27;;;;;;;11.52;5.20;;;;;;;10.45;100.00;101028.66;6258909;28;20327;-72
2023/03/21 13:20:35;;;;;;;13.48;5.80;;;;;;;10.45;100.00;101025.19;6269568;28;20053;-72
2023/03/21 13:23:39;;;;;;;14.87;5.70;;;;;;;10.42;100.00;101023.53;6256470;28;20442;-72
2023/03/21 13:26:41;;;;;;;12.55;6.68;;;;;;;10.47;100.00;101023.31;6253064;28;20452;-72
2023/03/21 13:29:48;;;;;;;13.23;5.20;;;;;;;10.38;100.00;101021.97;6253139;28;20049;-72
2023/03/21 13:32:51;;;;;;;10.90;6.15;;;;;;;10.41;100.00;101017.44;6253234;28;20045;-72
2023/03/21 13:35:59;;;;;;;13.02;5.63;;;;;;;10.33;100.00;101010.84;6252894;28;20057;-72
2023/03/21 13:39:05;;;;;;;12.02;5.00;;;;;;;10.29;100.00;101017.16;6251927;28;20053;-73
2023/03/21 13:42:17;;;;;;;15.18;6.55;;;;;;;10.38;100.00;101014.94;6252934;28;20107;-73
2023/03/21 13:45:25;;;;;;;10.52;5.65;;;;;;;10.35;100.00;101009.84;6253166;28;20053;-72
2023/03/21 13:48:28;;;;;;;9.13;5.28;;;;;;;10.35;100.00;101017.72;6252825;28;20059;-72
2023/03/21 13:51:44;;;;;;;8.43;5.18;;;;;;;10.31;100.00;101010.06;6259624;28;20496;-72
2023/03/21 13:54:51;;;;;;;12.75;5.82;;;;;;;10.34;100.00;101002.88;6274552;28;20129;-73
2023/03/21 13:57:53;;;;;;;10.90;5.45;;;;;;;10.36;100.00;101000.22;6272521;28;20052;-72
2023/03/21 14:01:14;;;;;;;12.25;5.50;;;;;;;10.35;100.00;101011.63;6250539;28;20072;-72
2023/03/21 14:04:18;;;;;;;11.88;5.60;;;;;;;10.36;100.00;101008.09;6254512;28;20049;-73